sensor_id;sensor_type;location;lat;lon;timestamp;P1;durP1;ratioP1;P2;durP2;ratioP2
40489;SDS011;26196;52.302;10.572;2022-09-21T00:02:28;2.25;;;1.10;;
40489;SDS011;26196;52.302;10.572;2022-09-21T00:06:29;2.45;;;1.17;;
40489;SDS011;26196;52.302;10.572;2022-09-21T00:10:31;2.08;;;1.17;;
40489;SDS011;26196;52.302;10.572;2022-09-21T00:14:32;1.98;;;1.13;;
40489;SDS011;26196;52.302;10.572;2022-09-21T00:18:33;1.80;;;1.27;;
40489;SDS011;26196;52.302;10.572;2022-09-21T00:22:34;0.98;;;0.88;;
40489;SDS011;26196;52.302;10.572;2022-09-21T00:26:35;2.65;;;1.98;;
40489;SDS011;26196;52.302;10.572;2022-09-21T00:30:36;1.65;;;1.27;;
40489;SDS011;26196;52.302;10.572;2022-09-21T00:34:36;2.88;;;1.17;;
40489;SDS011;26196;52.302;10.572;2022-09-21T00:38:37;2.03;;;1.33;;
40489;SDS011;26196;52.302;10.572;2022-09-21T00:42:38;1.70;;;1.10;;
40489;SDS011;26196;52.302;10.572;2022-09-21T00:46:38;1.48;;;0.98;;
40489;SDS011;26196;52.302;10.572;2022-09-21T00:50:40;1.50;;;1.08;;
40489;SDS011;26196;52.302;10.572;2022-09-21T00:54:48;2.42;;;1.05;;
40489;SDS011;26196;52.302;10.572;2022-09-21T00:58:55;1.80;;;1.20;;
40489;SDS011;26196;52.302;10.572;2022-09-21T01:02:56;1.13;;;0.70;;
40489;SDS011;26196;52.302;10.572;2022-09-21T01:07:01;1.52;;;1.25;;
40489;SDS011;26196;52.302;10.572;2022-09-21T01:24:50;2.78;;;1.45;;
40489;SDS011;26196;52.302;10.572;2022-09-21T01:33:33;1.77;;;1.15;;
40489;SDS011;26196;52.302;10.572;2022-09-21T01:38:16;2.25;;;1.25;;
40489;SDS011;26196;52.302;10.572;2022-09-21T01:42:14;1.95;;;1.13;;
40489;SDS011;26196;52.302;10.572;2022-09-21T01:46:19;3.00;;;1.48;;
40489;SDS011;26196;52.302;10.572;2022-09-21T01:50:21;1.92;;;1.20;;
40489;SDS011;26196;52.302;10.572;2022-09-21T01:54:29;2.17;;;1.20;;
40489;SDS011;26196;52.302;10.572;2022-09-21T01:58:51;2.22;;;1.27;;
40489;SDS011;26196;52.302;10.572;2022-09-21T02:07:07;5.82;;;2.08;;
40489;SDS011;26196;52.302;10.572;2022-09-21T02:11:08;2.00;;;1.38;;
40489;SDS011;26196;52.302;10.572;2022-09-21T02:15:11;1.90;;;1.45;;
40489;SDS011;26196;52.302;10.572;2022-09-21T02:23:26;2.05;;;1.45;;
40489;SDS011;26196;52.302;10.572;2022-09-21T02:32:34;1.75;;;1.20;;
40489;SDS011;26196;52.302;10.572;2022-09-21T02:36:34;2.30;;;1.08;;
40489;SDS011;26196;52.302;10.572;2022-09-21T02:45:14;1.98;;;1.40;;
40489;SDS011;26196;52.302;10.572;2022-09-21T02:49:20;1.38;;;1.20;;
40489;SDS011;26196;52.302;10.572;2022-09-21T02:53:28;2.22;;;1.10;;
40489;SDS011;26196;52.302;10.572;2022-09-21T02:57:32;2.00;;;1.17;;
40489;SDS011;26196;52.302;10.572;2022-09-21T03:01:32;1.88;;;1.15;;
40489;SDS011;26196;52.302;10.572;2022-09-21T03:05:33;1.75;;;1.02;;
40489;SDS011;26196;52.302;10.572;2022-09-21T03:09:34;1.35;;;0.82;;
40489;SDS011;26196;52.302;10.572;2022-09-21T03:13:35;1.63;;;1.00;;
40489;SDS011;26196;52.302;10.572;2022-09-21T03:17:35;1.90;;;1.02;;
40489;SDS011;26196;52.302;10.572;2022-09-21T03:21:36;1.70;;;1.15;;
40489;SDS011;26196;52.302;10.572;2022-09-21T03:25:37;1.52;;;1.00;;
40489;SDS011;26196;52.302;10.572;2022-09-21T03:29:37;2.30;;;1.30;;
40489;SDS011;26196;52.302;10.572;2022-09-21T03:33:38;1.55;;;1.17;;
40489;SDS011;26196;52.302;10.572;2022-09-21T03:37:38;2.30;;;1.13;;
40489;SDS011;26196;52.302;10.572;2022-09-21T03:41:39;1.58;;;1.20;;
40489;SDS011;26196;52.302;10.572;2022-09-21T03:45:39;2.38;;;0.95;;
40489;SDS011;26196;52.302;10.572;2022-09-21T03:49:41;1.85;;;1.20;;
40489;SDS011;26196;52.302;10.572;2022-09-21T03:53:42;4.70;;;1.52;;
40489;SDS011;26196;52.302;10.572;2022-09-21T03:57:42;1.90;;;1.15;;
40489;SDS011;26196;52.302;10.572;2022-09-21T04:01:42;4.72;;;1.27;;
40489;SDS011;26196;52.302;10.572;2022-09-21T04:05:43;2.25;;;1.40;;
40489;SDS011;26196;52.302;10.572;2022-09-21T04:09:43;3.10;;;1.50;;
40489;SDS011;26196;52.302;10.572;2022-09-21T04:13:47;2.90;;;1.15;;
40489;SDS011;26196;52.302;10.572;2022-09-21T04:17:51;1.70;;;1.02;;
40489;SDS011;26196;52.302;10.572;2022-09-21T04:21:53;3.03;;;2.47;;
40489;SDS011;26196;52.302;10.572;2022-09-21T04:25:55;5.38;;;1.45;;
40489;SDS011;26196;52.302;10.572;2022-09-21T04:29:56;4.22;;;1.45;;
40489;SDS011;26196;52.302;10.572;2022-09-21T04:33:57;3.22;;;1.50;;
40489;SDS011;26196;52.302;10.572;2022-09-21T04:37:57;4.20;;;2.15;;
40489;SDS011;26196;52.302;10.572;2022-09-21T04:41:58;4.88;;;1.85;;
40489;SDS011;26196;52.302;10.572;2022-09-21T04:46:03;6.30;;;2.22;;
40489;SDS011;26196;52.302;10.572;2022-09-21T04:50:08;8.50;;;2.72;;
40489;SDS011;26196;52.302;10.572;2022-09-21T04:54:09;11.60;;;2.60;;
40489;SDS011;26196;52.302;10.572;2022-09-21T04:58:09;9.00;;;2.10;;
40489;SDS011;26196;52.302;10.572;2022-09-21T05:02:10;11.10;;;2.60;;
40489;SDS011;26196;52.302;10.572;2022-09-21T05:06:11;6.32;;;2.70;;
40489;SDS011;26196;52.302;10.572;2022-09-21T05:10:12;3.00;;;1.70;;
40489;SDS011;26196;52.302;10.572;2022-09-21T05:14:13;4.95;;;1.80;;
40489;SDS011;26196;52.302;10.572;2022-09-21T05:18:13;2.65;;;1.88;;
40489;SDS011;26196;52.302;10.572;2022-09-21T05:22:14;3.63;;;1.67;;
40489;SDS011;26196;52.302;10.572;2022-09-21T05:26:14;2.95;;;1.60;;
40489;SDS011;26196;52.302;10.572;2022-09-21T05:30:15;2.90;;;1.48;;
40489;SDS011;26196;52.302;10.572;2022-09-21T05:38:32;3.03;;;1.67;;
40489;SDS011;26196;52.302;10.572;2022-09-21T05:42:32;3.13;;;1.60;;
40489;SDS011;26196;52.302;10.572;2022-09-21T06:07:31;2.70;;;1.60;;
40489;SDS011;26196;52.302;10.572;2022-09-21T06:11:31;3.38;;;1.90;;
40489;SDS011;26196;52.302;10.572;2022-09-21T06:15:32;2.58;;;1.70;;
40489;SDS011;26196;52.302;10.572;2022-09-21T06:19:37;1.70;;;1.33;;
40489;SDS011;26196;52.302;10.572;2022-09-21T06:23:37;2.38;;;1.45;;
40489;SDS011;26196;52.302;10.572;2022-09-21T06:27:38;2.25;;;1.48;;
40489;SDS011;26196;52.302;10.572;2022-09-21T06:31:38;1.85;;;1.15;;
40489;SDS011;26196;52.302;10.572;2022-09-21T06:35:39;2.30;;;1.30;;
40489;SDS011;26196;52.302;10.572;2022-09-21T06:39:39;2.13;;;1.20;;
40489;SDS011;26196;52.302;10.572;2022-09-21T06:43:40;2.13;;;1.42;;
40489;SDS011;26196;52.302;10.572;2022-09-21T06:47:45;2.22;;;1.25;;
40489;SDS011;26196;52.302;10.572;2022-09-21T06:51:47;1.40;;;1.13;;
40489;SDS011;26196;52.302;10.572;2022-09-21T06:55:47;2.22;;;1.45;;
40489;SDS011;26196;52.302;10.572;2022-09-21T06:59:48;3.17;;;1.70;;
40489;SDS011;26196;52.302;10.572;2022-09-21T07:03:49;2.58;;;1.38;;
40489;SDS011;26196;52.302;10.572;2022-09-21T07:07:55;2.50;;;1.80;;
40489;SDS011;26196;52.302;10.572;2022-09-21T07:11:56;4.63;;;3.00;;
40489;SDS011;26196;52.302;10.572;2022-09-21T07:15:57;3.15;;;2.05;;
40489;SDS011;26196;52.302;10.572;2022-09-21T07:19:57;3.63;;;1.83;;
40489;SDS011;26196;52.302;10.572;2022-09-21T07:23:58;1.58;;;1.13;;
40489;SDS011;26196;52.302;10.572;2022-09-21T07:27:59;1.90;;;1.05;;
40489;SDS011;26196;52.302;10.572;2022-09-21T07:32:00;2.63;;;1.60;;
40489;SDS011;26196;52.302;10.572;2022-09-21T07:36:00;3.85;;;1.33;;
40489;SDS011;26196;52.302;10.572;2022-09-21T07:40:02;2.80;;;1.20;;
40489;SDS011;26196;52.302;10.572;2022-09-21T07:44:05;2.45;;;1.48;;
40489;SDS011;26196;52.302;10.572;2022-09-21T07:48:05;1.88;;;1.48;;
40489;SDS011;26196;52.302;10.572;2022-09-21T07:52:08;3.90;;;1.33;;
40489;SDS011;26196;52.302;10.572;2022-09-21T07:56:11;3.08;;;1.40;;
40489;SDS011;26196;52.302;10.572;2022-09-21T08:00:14;4.40;;;1.43;;
40489;SDS011;26196;52.302;10.572;2022-09-21T08:04:14;3.78;;;1.70;;
40489;SDS011;26196;52.302;10.572;2022-09-21T08:08:15;3.10;;;1.17;;
40489;SDS011;26196;52.302;10.572;2022-09-21T08:12:16;3.15;;;1.40;;
40489;SDS011;26196;52.302;10.572;2022-09-21T08:16:17;3.00;;;1.63;;
40489;SDS011;26196;52.302;10.572;2022-09-21T08:20:18;3.80;;;1.70;;
40489;SDS011;26196;52.302;10.572;2022-09-21T08:24:19;1.92;;;1.10;;
40489;SDS011;26196;52.302;10.572;2022-09-21T08:28:20;3.13;;;1.45;;
40489;SDS011;26196;52.302;10.572;2022-09-21T08:32:20;2.75;;;1.58;;
40489;SDS011;26196;52.302;10.572;2022-09-21T08:36:21;1.65;;;0.73;;
40489;SDS011;26196;52.302;10.572;2022-09-21T08:40:21;1.67;;;1.00;;
40489;SDS011;26196;52.302;10.572;2022-09-21T08:44:27;2.50;;;1.65;;
40489;SDS011;26196;52.302;10.572;2022-09-21T08:48:35;4.88;;;1.40;;
40489;SDS011;26196;52.302;10.572;2022-09-21T08:52:41;2.22;;;1.42;;
40489;SDS011;26196;52.302;10.572;2022-09-21T08:56:41;1.10;;;0.88;;
40489;SDS011;26196;52.302;10.572;2022-09-21T09:00:42;1.38;;;0.90;;
40489;SDS011;26196;52.302;10.572;2022-09-21T09:09:11;1.90;;;1.08;;
40489;SDS011;26196;52.302;10.572;2022-09-21T09:22:36;2.15;;;0.75;;
40489;SDS011;26196;52.302;10.572;2022-09-21T09:26:46;2.08;;;0.85;;
40489;SDS011;26196;52.302;10.572;2022-09-21T09:35:47;2.97;;;0.80;;
40489;SDS011;26196;52.302;10.572;2022-09-21T09:39:52;4.55;;;0.90;;
40489;SDS011;26196;52.302;10.572;2022-09-21T09:44:01;4.35;;;0.70;;
40489;SDS011;26196;52.302;10.572;2022-09-21T09:48:39;1.65;;;0.95;;
40489;SDS011;26196;52.302;10.572;2022-09-21T09:52:41;2.35;;;1.08;;
40489;SDS011;26196;52.302;10.572;2022-09-21T09:56:44;1.60;;;0.85;;
40489;SDS011;26196;52.302;10.572;2022-09-21T10:00:45;1.98;;;0.80;;
40489;SDS011;26196;52.302;10.572;2022-09-21T10:13:28;3.58;;;0.75;;
40489;SDS011;26196;52.302;10.572;2022-09-21T10:17:30;2.47;;;0.70;;
40489;SDS011;26196;52.302;10.572;2022-09-21T10:21:38;1.92;;;0.85;;
40489;SDS011;26196;52.302;10.572;2022-09-21T10:25:42;1.85;;;0.60;;
40489;SDS011;26196;52.302;10.572;2022-09-21T10:29:43;4.60;;;1.20;;
40489;SDS011;26196;52.302;10.572;2022-09-21T10:33:47;1.65;;;0.63;;
40489;SDS011;26196;52.302;10.572;2022-09-21T10:38:10;2.22;;;1.05;;
40489;SDS011;26196;52.302;10.572;2022-09-21T10:42:16;2.25;;;0.70;;
40489;SDS011;26196;52.302;10.572;2022-09-21T10:46:18;3.83;;;0.90;;
40489;SDS011;26196;52.302;10.572;2022-09-21T10:54:47;3.55;;;0.52;;
40489;SDS011;26196;52.302;10.572;2022-09-21T11:07:31;1.13;;;0.43;;
40489;SDS011;26196;52.302;10.572;2022-09-21T11:11:38;1.95;;;0.30;;
40489;SDS011;26196;52.302;10.572;2022-09-21T11:46:19;3.10;;;0.80;;
40489;SDS011;26196;52.302;10.572;2022-09-21T11:50:38;1.70;;;0.32;;
40489;SDS011;26196;52.302;10.572;2022-09-21T12:29:51;0.32;;;0.20;;
40489;SDS011;26196;52.302;10.572;2022-09-21T12:34:08;0.68;;;0.20;;
40489;SDS011;26196;52.302;10.572;2022-09-21T12:38:20;2.47;;;0.25;;
40489;SDS011;26196;52.302;10.572;2022-09-21T12:42:32;7.22;;;1.65;;
40489;SDS011;26196;52.302;10.572;2022-09-21T12:46:40;2.55;;;0.50;;
40489;SDS011;26196;52.302;10.572;2022-09-21T12:50:50;2.13;;;0.40;;
40489;SDS011;26196;52.302;10.572;2022-09-21T13:03:20;8.93;;;2.40;;
40489;SDS011;26196;52.302;10.572;2022-09-21T13:12:00;3.33;;;0.77;;
40489;SDS011;26196;52.302;10.572;2022-09-21T13:16:27;6.72;;;0.90;;
40489;SDS011;26196;52.302;10.572;2022-09-21T13:20:37;4.97;;;1.40;;
40489;SDS011;26196;52.302;10.572;2022-09-21T13:24:40;3.92;;;1.45;;
40489;SDS011;26196;52.302;10.572;2022-09-21T13:32:53;8.48;;;1.65;;
40489;SDS011;26196;52.302;10.572;2022-09-21T13:49:20;15.20;;;7.05;;
40489;SDS011;26196;52.302;10.572;2022-09-21T13:53:37;17.05;;;7.28;;
40489;SDS011;26196;52.302;10.572;2022-09-21T13:57:40;15.60;;;6.05;;
40489;SDS011;26196;52.302;10.572;2022-09-21T14:05:48;10.93;;;4.75;;
40489;SDS011;26196;52.302;10.572;2022-09-21T14:09:53;7.72;;;3.63;;
40489;SDS011;26196;52.302;10.572;2022-09-21T14:14:05;14.68;;;3.85;;
40489;SDS011;26196;52.302;10.572;2022-09-21T14:30:34;8.65;;;4.13;;
40489;SDS011;26196;52.302;10.572;2022-09-21T14:34:36;6.45;;;2.60;;
40489;SDS011;26196;52.302;10.572;2022-09-21T14:38:43;7.60;;;4.15;;
40489;SDS011;26196;52.302;10.572;2022-09-21T14:42:50;7.03;;;2.63;;
40489;SDS011;26196;52.302;10.572;2022-09-21T15:00:39;6.88;;;1.88;;
40489;SDS011;26196;52.302;10.572;2022-09-21T15:18:17;2.63;;;1.20;;
40489;SDS011;26196;52.302;10.572;2022-09-21T15:22:20;3.15;;;0.73;;
40489;SDS011;26196;52.302;10.572;2022-09-21T15:26:22;2.55;;;1.27;;
40489;SDS011;26196;52.302;10.572;2022-09-21T15:34:32;6.53;;;1.08;;
40489;SDS011;26196;52.302;10.572;2022-09-21T15:38:32;3.13;;;1.02;;
40489;SDS011;26196;52.302;10.572;2022-09-21T15:42:37;4.22;;;0.70;;
40489;SDS011;26196;52.302;10.572;2022-09-21T15:47:00;3.55;;;0.68;;
40489;SDS011;26196;52.302;10.572;2022-09-21T15:55:28;6.80;;;1.85;;
40489;SDS011;26196;52.302;10.572;2022-09-21T15:59:29;1.73;;;0.75;;
40489;SDS011;26196;52.302;10.572;2022-09-21T16:03:30;3.30;;;0.60;;
40489;SDS011;26196;52.302;10.572;2022-09-21T16:07:32;5.88;;;1.75;;
40489;SDS011;26196;52.302;10.572;2022-09-21T16:11:34;4.53;;;1.48;;
40489;SDS011;26196;52.302;10.572;2022-09-21T16:15:37;3.38;;;0.85;;
40489;SDS011;26196;52.302;10.572;2022-09-21T16:19:42;8.10;;;1.02;;
40489;SDS011;26196;52.302;10.572;2022-09-21T16:23:55;2.35;;;1.05;;
40489;SDS011;26196;52.302;10.572;2022-09-21T16:28:01;4.40;;;1.20;;
40489;SDS011;26196;52.302;10.572;2022-09-21T16:32:33;3.72;;;0.70;;
40489;SDS011;26196;52.302;10.572;2022-09-21T16:36:35;4.03;;;1.38;;
40489;SDS011;26196;52.302;10.572;2022-09-21T16:40:38;2.03;;;0.73;;
40489;SDS011;26196;52.302;10.572;2022-09-21T16:44:38;2.20;;;0.93;;
40489;SDS011;26196;52.302;10.572;2022-09-21T16:48:43;3.90;;;1.17;;
40489;SDS011;26196;52.302;10.572;2022-09-21T16:52:44;4.63;;;1.30;;
40489;SDS011;26196;52.302;10.572;2022-09-21T16:56:47;3.17;;;0.70;;
40489;SDS011;26196;52.302;10.572;2022-09-21T17:00:48;2.85;;;0.80;;
40489;SDS011;26196;52.302;10.572;2022-09-21T17:04:52;5.13;;;0.85;;
40489;SDS011;26196;52.302;10.572;2022-09-21T17:08:52;3.83;;;0.50;;
40489;SDS011;26196;52.302;10.572;2022-09-21T17:12:53;5.25;;;0.80;;
40489;SDS011;26196;52.302;10.572;2022-09-21T17:16:55;2.67;;;0.77;;
40489;SDS011;26196;52.302;10.572;2022-09-21T17:20:59;2.25;;;0.40;;
40489;SDS011;26196;52.302;10.572;2022-09-21T17:25:00;3.08;;;0.70;;
40489;SDS011;26196;52.302;10.572;2022-09-21T17:29:02;1.67;;;0.93;;
40489;SDS011;26196;52.302;10.572;2022-09-21T17:33:13;3.20;;;0.65;;
40489;SDS011;26196;52.302;10.572;2022-09-21T17:37:13;1.23;;;0.40;;
40489;SDS011;26196;52.302;10.572;2022-09-21T17:41:16;1.73;;;0.70;;
40489;SDS011;26196;52.302;10.572;2022-09-21T17:45:31;2.13;;;0.70;;
40489;SDS011;26196;52.302;10.572;2022-09-21T17:49:39;3.40;;;0.57;;
40489;SDS011;26196;52.302;10.572;2022-09-21T17:53:39;3.40;;;0.40;;
40489;SDS011;26196;52.302;10.572;2022-09-21T18:01:46;1.98;;;0.60;;
40489;SDS011;26196;52.302;10.572;2022-09-21T18:05:48;1.40;;;0.63;;
40489;SDS011;26196;52.302;10.572;2022-09-21T18:09:50;1.05;;;0.38;;
40489;SDS011;26196;52.302;10.572;2022-09-21T18:18:16;4.13;;;0.85;;
40489;SDS011;26196;52.302;10.572;2022-09-21T18:26:41;3.22;;;0.80;;
40489;SDS011;26196;52.302;10.572;2022-09-21T18:30:44;1.02;;;0.43;;
40489;SDS011;26196;52.302;10.572;2022-09-21T18:39:02;1.42;;;0.50;;
40489;SDS011;26196;52.302;10.572;2022-09-21T18:56:40;2.40;;;1.10;;
40489;SDS011;26196;52.302;10.572;2022-09-21T19:00:41;1.60;;;0.50;;
40489;SDS011;26196;52.302;10.572;2022-09-21T19:04:42;2.58;;;1.00;;
40489;SDS011;26196;52.302;10.572;2022-09-21T19:08:45;2.38;;;0.90;;
40489;SDS011;26196;52.302;10.572;2022-09-21T19:33:47;2.67;;;0.70;;
40489;SDS011;26196;52.302;10.572;2022-09-21T19:37:48;1.38;;;0.90;;
40489;SDS011;26196;52.302;10.572;2022-09-21T19:50:37;1.95;;;0.60;;
40489;SDS011;26196;52.302;10.572;2022-09-21T19:54:53;3.45;;;0.80;;
40489;SDS011;26196;52.302;10.572;2022-09-21T19:59:12;4.15;;;1.02;;
40489;SDS011;26196;52.302;10.572;2022-09-21T20:03:33;3.15;;;0.90;;
40489;SDS011;26196;52.302;10.572;2022-09-21T20:07:46;1.85;;;0.65;;
40489;SDS011;26196;52.302;10.572;2022-09-21T20:16:32;2.08;;;0.77;;
40489;SDS011;26196;52.302;10.572;2022-09-21T20:20:39;1.88;;;0.68;;
40489;SDS011;26196;52.302;10.572;2022-09-21T20:24:43;2.65;;;1.10;;
40489;SDS011;26196;52.302;10.572;2022-09-21T20:28:45;2.05;;;0.80;;
40489;SDS011;26196;52.302;10.572;2022-09-21T20:32:50;1.70;;;0.80;;
40489;SDS011;26196;52.302;10.572;2022-09-21T20:36:52;2.22;;;1.23;;
40489;SDS011;26196;52.302;10.572;2022-09-21T20:40:53;2.97;;;0.88;;
40489;SDS011;26196;52.302;10.572;2022-09-21T20:44:53;3.22;;;1.58;;
40489;SDS011;26196;52.302;10.572;2022-09-21T20:48:54;5.45;;;2.33;;
40489;SDS011;26196;52.302;10.572;2022-09-21T20:53:04;3.40;;;1.92;;
40489;SDS011;26196;52.302;10.572;2022-09-21T20:57:06;3.03;;;1.65;;
40489;SDS011;26196;52.302;10.572;2022-09-21T21:01:07;4.80;;;1.88;;
40489;SDS011;26196;52.302;10.572;2022-09-21T21:05:09;2.78;;;1.17;;
40489;SDS011;26196;52.302;10.572;2022-09-21T21:09:10;3.47;;;1.30;;
40489;SDS011;26196;52.302;10.572;2022-09-21T21:13:10;2.20;;;1.40;;
40489;SDS011;26196;52.302;10.572;2022-09-21T21:17:11;2.55;;;1.42;;
40489;SDS011;26196;52.302;10.572;2022-09-21T21:21:14;3.42;;;1.20;;
40489;SDS011;26196;52.302;10.572;2022-09-21T21:25:15;3.17;;;1.80;;
40489;SDS011;26196;52.302;10.572;2022-09-21T21:29:16;2.72;;;1.23;;
40489;SDS011;26196;52.302;10.572;2022-09-21T21:33:16;2.75;;;1.50;;
40489;SDS011;26196;52.302;10.572;2022-09-21T21:37:18;1.60;;;1.15;;
40489;SDS011;26196;52.302;10.572;2022-09-21T21:41:20;2.50;;;1.63;;
40489;SDS011;26196;52.302;10.572;2022-09-21T21:45:21;3.95;;;1.65;;
40489;SDS011;26196;52.302;10.572;2022-09-21T21:49:21;2.50;;;1.75;;
40489;SDS011;26196;52.302;10.572;2022-09-21T21:53:23;2.03;;;1.25;;
40489;SDS011;26196;52.302;10.572;2022-09-21T21:57:23;2.97;;;1.63;;
40489;SDS011;26196;52.302;10.572;2022-09-21T22:01:25;2.92;;;1.50;;
40489;SDS011;26196;52.302;10.572;2022-09-21T22:05:27;3.63;;;1.30;;
40489;SDS011;26196;52.302;10.572;2022-09-21T22:09:27;3.58;;;1.80;;
40489;SDS011;26196;52.302;10.572;2022-09-21T22:13:28;3.00;;;2.00;;
40489;SDS011;26196;52.302;10.572;2022-09-21T22:17:29;2.53;;;2.00;;
40489;SDS011;26196;52.302;10.572;2022-09-21T22:21:30;3.28;;;2.05;;
40489;SDS011;26196;52.302;10.572;2022-09-21T22:25:33;4.07;;;2.15;;
40489;SDS011;26196;52.302;10.572;2022-09-21T22:29:33;2.97;;;2.13;;
40489;SDS011;26196;52.302;10.572;2022-09-21T22:33:34;2.67;;;1.42;;
40489;SDS011;26196;52.302;10.572;2022-09-21T22:37:36;2.17;;;1.48;;
40489;SDS011;26196;52.302;10.572;2022-09-21T22:41:40;3.22;;;1.75;;
40489;SDS011;26196;52.302;10.572;2022-09-21T22:45:41;2.95;;;1.67;;
40489;SDS011;26196;52.302;10.572;2022-09-21T22:49:42;2.45;;;1.60;;
40489;SDS011;26196;52.302;10.572;2022-09-21T22:53:43;2.60;;;1.70;;
40489;SDS011;26196;52.302;10.572;2022-09-21T22:57:44;2.40;;;1.30;;
40489;SDS011;26196;52.302;10.572;2022-09-21T23:01:44;1.85;;;1.23;;
40489;SDS011;26196;52.302;10.572;2022-09-21T23:05:53;2.92;;;1.58;;
40489;SDS011;26196;52.302;10.572;2022-09-21T23:09:55;2.42;;;1.50;;
40489;SDS011;26196;52.302;10.572;2022-09-21T23:13:56;2.63;;;1.55;;
40489;SDS011;26196;52.302;10.572;2022-09-21T23:17:57;1.42;;;1.25;;
40489;SDS011;26196;52.302;10.572;2022-09-21T23:21:57;3.28;;;1.40;;
40489;SDS011;26196;52.302;10.572;2022-09-21T23:26:01;4.03;;;1.63;;
40489;SDS011;26196;52.302;10.572;2022-09-21T23:30:04;2.45;;;1.67;;
40489;SDS011;26196;52.302;10.572;2022-09-21T23:34:06;2.05;;;1.38;;
40489;SDS011;26196;52.302;10.572;2022-09-21T23:38:08;3.42;;;1.35;;
40489;SDS011;26196;52.302;10.572;2022-09-21T23:42:08;1.92;;;1.45;;
40489;SDS011;26196;52.302;10.572;2022-09-21T23:46:11;3.28;;;1.70;;
40489;SDS011;26196;52.302;10.572;2022-09-21T23:50:15;2.30;;;1.30;;
40489;SDS011;26196;52.302;10.572;2022-09-21T23:54:15;1.90;;;1.23;;
40489;SDS011;26196;52.302;10.572;2022-09-21T23:58:18;1.98;;;1.40;;
